Time;durP1;ratioP1;P1;durP2;ratioP2;P2;SDS_P1;SDS_P2;PMS_P1;PMS_P2;Temp;Humidity;BMP_temperature;BMP_pressure;BME280_temperature;BME280_humidity;BME280_pressure;Samples;Min_cycle;Max_cycle;Signal;HPM_P1;HPM_P2
2023/05/18 00:00:52;;;;;;;7.90;3.97;;;8.00;71.80;;;11.22;46.51;98256.09;4971916;28;20506;-46
2023/05/18 00:03:20;;;;;;;6.33;4.77;;;8.00;72.00;;;11.19;46.56;98248.44;4971893;28;20047;-48
2023/05/18 00:05:48;;;;;;;7.53;4.20;;;8.00;72.10;;;11.15;46.39;98250.56;4970886;28;20042;-47
2023/05/18 00:08:16;;;;;;;7.03;4.37;;;8.00;72.40;;;11.13;46.51;98249.88;4971661;28;20043;-46
2023/05/18 00:10:44;;;;;;;10.33;5.63;;;7.90;72.60;;;11.12;46.65;98250.84;4971827;28;20053;-48
2023/05/18 00:13:11;;;;;;;6.60;4.00;;;7.90;72.40;;;11.11;46.58;98251.84;4971975;28;20074;-47
2023/05/18 00:15:39;;;;;;;7.43;4.27;;;7.90;72.70;;;11.06;46.95;98246.13;4972338;28;20051;-48
2023/05/18 00:18:07;;;;;;;7.07;4.43;;;7.90;72.70;;;11.03;46.49;98241.94;4971472;28;20043;-46
2023/05/18 00:20:35;;;;;;;7.30;4.23;;;7.80;72.70;;;11.02;46.82;98234.06;4971625;28;20055;-45
2023/05/18 00:23:03;;;;;;;5.40;4.20;;;7.80;73.00;;;11.00;46.90;98222.75;4971853;28;20043;-45
2023/05/18 00:25:30;;;;;;;5.97;4.23;;;7.80;73.20;;;11.02;47.20;98224.25;4970649;28;20039;-48
2023/05/18 00:27:58;;;;;;;6.50;4.30;;;7.80;73.10;;;11.00;47.32;98226.22;4971784;28;20050;-47
2023/05/18 00:30:26;;;;;;;9.13;4.37;;;7.80;73.30;;;11.00;47.33;98223.56;4951058;28;20042;-46
2023/05/18 00:32:56;;;;;;;10.63;5.47;;;7.90;73.30;;;11.02;47.28;98226.91;4953820;28;20043;-46
2023/05/18 00:35:23;;;;;;;9.23;5.77;;;7.90;73.50;;;11.02;47.39;98226.09;4954413;28;20047;-46
2023/05/18 00:37:51;;;;;;;12.30;5.83;;;7.90;73.10;;;11.04;47.31;98226.78;4971829;28;20050;-45
2023/05/18 00:40:20;;;;;;;11.10;5.73;;;7.90;72.80;;;11.04;47.17;98221.44;4953507;28;20063;-46
2023/05/18 00:42:48;;;;;;;7.23;5.20;;;7.90;73.10;;;11.01;47.52;98217.25;4970368;28;20084;-47
2023/05/18 00:45:17;;;;;;;10.40;5.50;;;7.90;73.40;;;11.02;47.55;98224.25;4969387;28;20050;-44
2023/05/18 00:47:46;;;;;;;8.87;5.13;;;7.90;73.30;;;11.06;47.43;98227.47;4971167;28;20047;-46
2023/05/18 00:50:14;;;;;;;8.40;5.30;;;7.90;73.20;;;11.06;47.50;98221.31;4956887;28;20058;-44
2023/05/18 00:52:43;;;;;;;8.87;4.47;;;7.90;73.50;;;11.08;47.67;98217.50;4975134;28;20054;-48
2023/05/18 00:55:13;;;;;;;6.17;4.33;;;7.90;73.40;;;11.08;47.34;98217.50;4974245;28;20061;-44
2023/05/18 00:57:43;;;;;;;8.53;4.17;;;8.00;73.50;;;11.12;47.53;98218.84;4957071;28;20050;-46
2023/05/18 01:00:12;;;;;;;7.23;4.80;;;8.00;73.10;;;11.15;47.17;98218.56;4972721;28;20426;-46
2023/05/18 01:02:44;;;;;;;10.47;4.67;;;8.00;73.10;;;11.15;47.14;98223.06;4973611;28;20502;-46
2023/05/18 01:05:12;;;;;;;9.37;4.10;;;8.00;72.80;;;11.17;47.01;98215.75;4974731;28;20042;-44
2023/05/18 01:07:43;;;;;;;5.87;4.37;;;8.10;72.60;;;11.19;46.96;98217.28;4974958;28;20062;-46
2023/05/18 01:10:15;;;;;;;6.63;3.67;;;8.20;72.00;;;11.20;47.42;98212.78;4957631;28;20034;-46
2023/05/18 01:12:57;;;;;;;9.43;4.07;;;8.20;72.00;;;11.21;46.97;98217.97;4974724;28;20416;-47
2023/05/18 01:15:47;;;;;;;10.60;3.70;;;8.20;72.70;;;11.19;47.17;98219.13;4973752;28;20043;-47
2023/05/18 01:18:31;;;;;;;6.13;3.87;;;8.10;72.20;;;11.23;46.98;98225.81;4965113;28;20062;-45
2023/05/18 01:21:45;;;;;;;6.88;3.58;;;8.20;71.80;;;11.23;47.00;98223.97;4974337;28;20051;-46
2023/05/18 01:24:32;;;;;;;8.23;4.37;;;8.10;73.20;;;11.24;47.24;98222.13;4924448;29;20455;-43
2023/05/18 01:27:00;;;;;;;6.97;4.13;;;8.10;72.40;;;11.23;47.14;98225.81;4955181;28;20058;-44
2023/05/18 01:29:29;;;;;;;12.07;4.63;;;8.20;71.80;;;11.22;47.32;98226.78;4956889;28;20050;-45
2023/05/18 01:31:57;;;;;;;6.83;4.20;;;8.10;71.70;;;11.22;47.47;98230.31;4974400;28;20501;-45
2023/05/18 01:34:25;;;;;;;6.90;4.20;;;8.20;71.90;;;11.23;46.87;98225.81;4974108;28;20038;-44
2023/05/18 01:36:53;;;;;;;5.23;3.40;;;8.10;72.50;;;11.22;47.09;98224.13;4972233;28;20055;-45
2023/05/18 01:39:21;;;;;;;6.50;3.73;;;8.20;72.00;;;11.23;47.53;98217.81;4956946;28;20038;-46
2023/05/18 01:42:02;;;;;;;10.90;4.27;;;8.10;72.10;;;11.22;47.10;98224.13;4956201;28;20046;-46
2023/05/18 01:44:38;;;;;;;6.90;3.80;;;8.10;72.50;;;11.21;47.42;98217.97;4949680;28;20419;-47
2023/05/18 01:47:17;;;;;;;8.70;4.60;;;8.10;72.30;;;11.20;47.43;98218.94;4973079;28;20058;-45
2023/05/18 01:50:12;;;;;;;8.27;5.37;;;8.10;72.80;;;11.18;46.96;98220.91;4973842;28;20495;-43
2023/05/18 01:53:27;;;;;;;7.83;3.90;;;8.10;73.10;;;11.17;47.35;98221.09;4949563;28;20416;-44
2023/05/18 01:55:56;;;;;;;6.97;4.47;;;8.00;72.90;;;11.14;47.23;98214.22;4920465;29;20531;-44
2023/05/18 01:58:25;;;;;;;8.33;4.77;;;7.90;73.00;;;11.10;47.35;98214.69;4961634;28;20067;-44
2023/05/18 02:00:52;;;;;;;7.87;4.20;;;7.90;73.20;;;11.05;47.75;98217.81;4955485;28;20059;-45
2023/05/18 02:03:20;;;;;;;8.03;3.80;;;7.80;73.60;;;11.01;47.80;98214.59;4972651;28;20418;-45
2023/05/18 02:05:48;;;;;;;6.07;4.23;;;7.80;73.70;;;11.02;47.88;98216.25;4955686;28;20383;-48
2023/05/18 02:08:16;;;;;;;7.10;4.13;;;7.90;73.80;;;10.99;47.83;98210.38;4963589;28;20059;-44
2023/05/18 02:10:44;;;;;;;8.50;4.70;;;7.80;73.60;;;10.96;47.58;98213.38;4971929;28;20418;-48
2023/05/18 02:13:12;;;;;;;10.47;4.70;;;7.80;73.70;;;10.92;47.83;98212.81;4973954;28;20042;-47
2023/05/18 02:15:39;;;;;;;6.20;4.07;;;7.70;73.90;;;10.91;47.78;98210.31;4956231;28;20050;-46
2023/05/18 02:18:07;;;;;;;6.57;4.83;;;7.70;73.90;;;10.88;47.98;98214.13;4973344;28;20521;-45
2023/05/18 02:20:36;;;;;;;9.73;4.93;;;7.70;74.00;;;10.83;48.01;98209.22;4973117;28;20069;-46
2023/05/18 02:23:04;;;;;;;7.03;4.83;;;7.70;74.20;;;10.81;47.85;98211.19;4972426;28;20051;-46
2023/05/18 02:25:32;;;;;;;7.00;4.73;;;7.60;74.20;;;10.78;47.87;98208.84;4973366;28;20042;-45
2023/05/18 02:27:59;;;;;;;10.20;5.00;;;7.60;74.70;;;10.75;48.35;98211.78;4947728;28;20111;-48
2023/05/18 02:30:31;;;;;;;6.33;4.90;;;7.50;75.20;;;10.73;48.22;98215.59;4972998;28;20077;-49
2023/05/18 02:32:59;;;;;;;10.13;5.17;;;7.50;75.50;;;10.70;48.20;98211.41;4956425;28;20051;-45
2023/05/18 02:35:27;;;;;;;10.83;5.23;;;7.50;75.90;;;10.68;48.22;98210.69;4972994;28;20051;-48
2023/05/18 02:37:57;;;;;;;7.67;4.80;;;7.50;75.70;;;10.64;48.32;98202.19;4955071;28;20544;-44
2023/05/18 02:40:24;;;;;;;8.97;5.53;;;7.40;76.20;;;10.60;48.30;98208.81;4955215;28;20074;-45
2023/05/18 02:42:52;;;;;;;6.73;4.83;;;7.40;76.10;;;10.56;48.52;98204.72;4971307;28;20047;-45
2023/05/18 02:45:20;;;;;;;7.30;4.77;;;7.40;76.60;;;10.50;48.83;98202.66;4971554;28;20043;-44
2023/05/18 02:47:48;;;;;;;9.00;5.33;;;7.30;76.60;;;10.45;48.79;98199.63;4972474;28;20474;-43
2023/05/18 02:50:15;;;;;;;7.90;5.40;;;7.30;77.30;;;10.42;48.84;98199.91;4972675;28;20038;-44
2023/05/18 02:52:47;;;;;;;9.37;5.80;;;7.20;77.30;;;10.40;48.82;98194.72;4973263;28;20035;-46
2023/05/18 02:55:16;;;;;;;14.60;7.50;;;7.20;77.80;;;10.38;49.04;98191.38;4963142;28;20043;-45
2023/05/18 02:58:06;;;;;;;15.53;7.70;;;7.20;77.80;;;10.36;48.76;98205.81;4955694;28;20054;-43
2023/05/18 03:00:55;;;;;;;13.23;7.90;;;7.10;78.10;;;10.32;49.12;98207.09;4955500;28;20053;-44
2023/05/18 03:03:24;;;;;;;12.43;8.13;;;7.00;78.50;;;10.23;48.99;98206.94;4963386;28;20056;-44
2023/05/18 03:05:52;;;;;;;14.53;7.70;;;7.00;78.70;;;10.21;48.97;98202.75;4954693;28;20039;-44
2023/05/18 03:08:25;;;;;;;10.50;6.90;;;6.90;78.80;;;10.17;49.49;98198.69;4955238;28;20047;-45
2023/05/18 03:10:57;;;;;;;12.30;8.05;;;6.90;79.10;;;10.16;49.29;98197.03;4954993;28;20391;-45
2023/05/18 03:13:25;;;;;;;11.70;6.63;;;6.90;79.40;;;10.12;49.28;98203.63;4954679;28;20506;-43
2023/05/18 03:15:55;;;;;;;12.73;7.40;;;6.90;79.30;;;10.08;49.34;98204.88;4972222;28;20050;-46
2023/05/18 03:18:24;;;;;;;9.73;7.00;;;6.90;79.30;;;10.02;49.18;98204.50;4954464;28;20054;-45
2023/05/18 03:20:52;;;;;;;8.63;6.80;;;6.80;79.50;;;9.99;49.39;98202.13;4962568;28;20051;-46
2023/05/18 03:23:19;;;;;;;10.20;6.40;;;6.80;79.60;;;9.96;49.62;98201.56;4972381;28;20038;-45
2023/05/18 03:25:54;;;;;;;8.20;5.50;;;6.70;79.90;;;9.91;49.51;98202.00;4955156;28;20047;-44
2023/05/18 03:28:25;;;;;;;8.13;5.20;;;6.70;80.40;;;9.86;49.91;98197.09;4954514;28;20051;-46
2023/05/18 03:30:52;;;;;;;12.00;6.30;;;6.60;80.50;;;9.84;49.80;98200.88;4971020;28;20046;-43
2023/05/18 03:33:21;;;;;;;10.63;6.13;;;6.60;80.60;;;9.78;49.79;98191.66;4952867;28;20067;-44
2023/05/18 03:35:49;;;;;;;8.87;6.00;;;6.50;80.70;;;9.74;49.70;98190.28;4972242;28;20046;-44
2023/05/18 03:38:16;;;;;;;8.30;5.83;;;6.40;81.20;;;9.71;49.83;98203.00;4954358;28;20054;-44
2023/05/18 03:40:49;;;;;;;10.80;5.80;;;6.40;81.20;;;9.69;49.81;98205.81;4962089;28;20053;-43
2023/05/18 03:43:17;;;;;;;10.33;6.37;;;6.40;81.50;;;9.67;49.75;98202.44;4962126;28;20325;-45
2023/05/18 03:45:46;;;;;;;10.73;6.07;;;6.40;81.20;;;9.64;50.02;98210.72;4970544;28;20043;-43
2023/05/18 03:48:13;;;;;;;11.03;6.03;;;6.40;81.30;;;9.62;50.08;98208.19;4954943;28;20073;-43
2023/05/18 03:50:42;;;;;;;12.23;6.67;;;6.40;81.20;;;9.60;49.89;98201.34;4962260;28;20043;-43
2023/05/18 03:53:11;;;;;;;13.37;7.27;;;6.30;81.30;;;9.58;49.74;98201.50;4972050;28;20038;-43
2023/05/18 03:55:40;;;;;;;11.83;6.83;;;6.30;81.30;;;9.56;50.19;98197.31;4955078;28;20514;-43
2023/05/18 03:58:08;;;;;;;10.23;6.67;;;6.30;81.70;;;9.58;50.01;98208.63;4971732;28;20038;-45
2023/05/18 04:00:35;;;;;;;12.23;6.67;;;6.40;81.30;;;9.55;49.97;98200.94;4971635;28;20418;-44
2023/05/18 04:03:03;;;;;;;11.47;6.23;;;6.30;80.80;;;9.55;50.04;98199.09;4971972;28;20047;-46
2023/05/18 04:05:31;;;;;;;10.80;5.83;;;6.30;81.20;;;9.55;49.96;98204.41;4961730;28;20066;-49
2023/05/18 04:08:00;;;;;;;9.10;4.87;;;6.30;81.40;;;9.55;50.21;98207.06;4946737;28;20052;-47
2023/05/18 04:10:27;;;;;;;7.97;5.50;;;6.30;81.60;;;9.53;50.11;98219.66;4953809;28;20051;-49
2023/05/18 04:12:56;;;;;;;12.43;7.27;;;6.30;81.60;;;9.50;50.10;98219.97;4954296;28;20043;-46
2023/05/18 04:15:23;;;;;;;14.37;7.50;;;6.30;81.50;;;9.53;49.93;98219.66;4971552;28;20387;-49
2023/05/18 04:17:52;;;;;;;10.00;6.93;;;6.30;81.30;;;9.52;50.22;98217.16;4971556;28;20465;-49
2023/05/18 04:20:20;;;;;;;9.17;6.50;;;6.30;81.60;;;9.52;50.12;98225.97;4953476;28;20039;-45
2023/05/18 04:22:48;;;;;;;11.10;5.77;;;6.30;81.30;;;9.52;50.32;98225.97;4971708;28;20039;-45
2023/05/18 04:25:17;;;;;;;7.03;5.20;;;6.30;81.90;;;9.56;50.29;98227.38;4973753;28;20062;-44
2023/05/18 04:27:45;;;;;;;8.67;4.90;;;6.40;82.30;;;9.56;50.42;98232.69;4957315;28;20055;-46
2023/05/18 04:30:17;;;;;;;11.03;5.20;;;6.40;82.80;;;9.57;50.51;98230.88;4957715;28;20043;-45
2023/05/18 04:32:45;;;;;;;7.57;5.70;;;6.40;83.10;;;9.58;50.82;98224.59;4949937;28;20047;-46
2023/05/18 04:35:13;;;;;;;7.53;4.63;;;6.40;83.30;;;9.63;50.55;98240.94;4957498;28;20055;-46
2023/05/18 04:37:41;;;;;;;17.57;5.40;;;6.40;83.20;;;9.64;50.71;98238.13;4957998;28;20042;-48
2023/05/18 04:40:12;;;;;;;9.97;4.70;;;6.50;83.20;;;9.69;50.80;98236.88;4957243;28;20387;-45
2023/05/18 04:42:46;;;;;;;8.73;4.90;;;6.50;83.30;;;9.72;50.62;98244.59;4950073;28;20039;-49
2023/05/18 04:45:19;;;;;;;8.90;4.40;;;6.60;83.00;;;9.80;50.84;98237.56;4950063;28;20054;-47
2023/05/18 04:47:52;;;;;;;7.47;4.87;;;6.70;82.70;;;9.85;50.54;98247.78;4957530;28;20058;-46
2023/05/18 04:50:22;;;;;;;10.73;4.68;;;6.80;82.20;;;9.91;50.63;98246.38;4957606;28;20043;-50
2023/05/18 04:52:51;;;;;;;7.97;4.03;;;6.90;82.20;;;9.94;50.44;98244.25;4957666;28;20054;-47
2023/05/18 04:55:24;;;;;;;6.37;3.93;;;6.90;81.70;;;10.01;50.68;98253.34;4973163;28;20061;-48
2023/05/18 04:57:56;;;;;;;6.13;4.30;;;7.00;81.10;;;10.04;50.83;98253.06;4957142;28;20039;-44
2023/05/18 05:00:27;;;;;;;9.93;4.73;;;7.10;80.90;;;10.09;50.71;98252.63;4957460;28;20050;-46
2023/05/18 05:02:56;;;;;;;8.20;4.30;;;7.10;80.80;;;10.16;50.32;98247.59;4973988;28;20054;-48
2023/05/18 05:05:25;;;;;;;7.07;4.13;;;7.20;80.60;;;10.19;50.64;98249.94;4965604;28;20371;-48
2023/05/18 05:07:54;;;;;;;7.60;4.60;;;7.20;80.40;;;10.24;50.49;98251.19;4973266;28;20359;-45
2023/05/18 05:10:22;;;;;;;7.87;3.77;;;7.30;80.00;;;10.30;50.27;98257.81;4973131;28;20054;-47
2023/05/18 05:12:50;;;;;;;7.47;4.00;;;7.40;79.50;;;10.32;50.21;98257.66;4957100;28;20047;-47
2023/05/18 05:15:19;;;;;;;6.77;3.30;;;7.40;79.30;;;10.38;50.42;98257.09;4964586;28;20051;-47
2023/05/18 05:17:50;;;;;;;8.77;3.50;;;7.50;79.10;;;10.42;50.07;98259.28;4973091;28;20050;-45
2023/05/18 05:20:18;;;;;;;7.80;4.17;;;7.50;78.70;;;10.43;50.08;98255.66;4973132;28;20058;-46
2023/05/18 05:22:46;;;;;;;7.90;4.27;;;7.60;78.50;;;10.43;50.45;98257.50;4956998;28;20062;-45
2023/05/18 05:25:17;;;;;;;10.43;4.27;;;7.60;78.10;;;10.46;50.36;98265.19;4957199;28;20057;-46
2023/05/18 05:27:45;;;;;;;7.40;4.50;;;7.70;77.80;;;10.46;50.01;98259.03;4956679;28;20207;-47
2023/05/18 05:30:13;;;;;;;7.43;3.77;;;7.80;77.50;;;10.48;50.23;98249.06;4972985;28;20316;-47
2023/05/18 05:32:42;;;;;;;6.43;3.47;;;7.80;77.00;;;10.50;50.13;98247.91;4949526;28;20050;-46
2023/05/18 05:35:10;;;;;;;6.73;3.73;;;7.80;76.90;;;10.59;50.03;98252.38;4964974;28;20038;-47
2023/05/18 05:37:38;;;;;;;7.57;3.90;;;7.80;77.20;;;10.66;50.29;98246.47;4955610;28;20059;-48
2023/05/18 05:40:08;;;;;;;10.87;6.53;;;7.80;77.70;;;10.71;49.95;98253.03;4964502;28;20069;-50
2023/05/18 05:42:43;;;;;;;13.80;9.27;;;7.80;77.80;;;10.76;50.04;98255.22;4956459;28;20046;-50
2023/05/18 05:45:10;;;;;;;17.13;10.53;;;7.80;77.40;;;10.82;50.14;98257.34;4974594;28;20050;-47
2023/05/18 05:47:44;;;;;;;10.15;6.22;;;7.90;77.50;;;10.90;50.05;98256.59;4948805;28;20050;-50
2023/05/18 05:50:12;;;;;;;8.13;4.63;;;8.00;77.60;;;10.96;49.74;98261.31;4964118;28;20046;-47
2023/05/18 05:52:40;;;;;;;7.23;4.40;;;8.00;77.50;;;10.99;49.72;98253.00;4956474;28;20123;-47
2023/05/18 05:55:09;;;;;;;12.20;6.87;;;8.00;77.40;;;11.00;49.61;98260.03;4974120;28;20045;-48
2023/05/18 05:57:38;;;;;;;7.87;4.70;;;8.00;76.80;;;11.02;49.88;98258.06;4972286;28;20047;-46
2023/05/18 06:00:11;;;;;;;8.07;4.30;;;8.10;77.00;;;11.03;49.79;98265.91;4956440;28;20069;-47
2023/05/18 06:02:48;;;;;;;6.90;4.10;;;8.20;76.70;;;11.09;49.60;98261.81;4968940;28;20063;-45
2023/05/18 06:05:23;;;;;;;11.90;6.13;;;8.20;76.50;;;11.15;49.45;98261.22;4956313;28;20046;-47
2023/05/18 06:07:51;;;;;;;6.93;4.30;;;8.30;76.70;;;11.19;49.11;98264.41;4973536;28;20039;-47
2023/05/18 06:10:19;;;;;;;11.27;3.80;;;8.20;75.70;;;11.09;49.64;98261.81;4955959;28;20049;-47
2023/05/18 06:12:46;;;;;;;7.33;3.50;;;8.10;75.70;;;11.10;49.71;98263.47;4966026;28;20062;-47
2023/05/18 06:15:14;;;;;;;7.07;3.93;;;8.10;76.60;;;11.12;49.86;98266.00;4956673;28;20049;-48
2023/05/18 06:17:42;;;;;;;5.33;3.30;;;8.20;76.70;;;11.18;49.75;98270.72;4971774;28;20062;-45
2023/05/18 06:20:12;;;;;;;5.53;3.57;;;8.30;76.60;;;11.28;49.35;98268.00;4963632;28;20051;-47
2023/05/18 06:22:40;;;;;;;6.10;3.53;;;8.40;76.10;;;11.38;49.44;98269.63;4956227;28;20098;-49
2023/05/18 06:25:19;;;;;;;7.60;4.00;;;8.50;76.00;;;11.42;49.41;98267.50;4964259;28;20078;-47
2023/05/18 06:28:04;;;;;;;4.70;3.63;;;8.50;76.40;;;11.50;49.46;98277.41;4956435;28;20074;-48
2023/05/18 06:31:01;;;;;;;8.60;3.87;;;8.60;76.30;;;11.58;49.01;98270.31;4953018;28;20054;-50
2023/05/18 06:33:33;;;;;;;6.10;3.80;;;8.70;75.60;;;11.62;49.26;98266.34;4968056;28;20058;-47
2023/05/18 06:36:01;;;;;;;9.67;3.17;;;8.70;75.60;;;11.60;49.34;98279.00;4955211;28;20046;-48
2023/05/18 06:38:28;;;;;;;4.97;3.37;;;8.80;75.10;;;11.63;48.93;98267.16;4971947;28;20427;-45
2023/05/18 06:40:56;;;;;;;7.57;3.20;;;8.80;74.60;;;11.66;49.03;98266.88;4971809;28;20487;-47
2023/05/18 06:43:27;;;;;;;6.17;3.80;;;8.90;73.70;;;11.68;48.49;98269.41;4963695;28;20058;-50
2023/05/18 06:46:22;;;;;;;12.33;3.70;;;9.00;73.30;;;11.79;48.90;98266.50;4957694;28;20050;-46
2023/05/18 06:48:54;;;;;;;9.27;3.93;;;9.10;73.20;;;11.91;48.39;98269.78;4971510;28;20034;-48
2023/05/18 06:51:22;;;;;;;9.83;3.37;;;9.10;73.10;;;12.00;48.21;98277.72;4973096;28;20042;-46
2023/05/18 06:53:50;;;;;;;11.10;3.60;;;9.20;72.40;;;12.06;47.92;98265.59;4964170;28;20074;-47
2023/05/18 06:56:18;;;;;;;7.73;3.40;;;9.30;71.90;;;12.12;48.46;98266.78;4971500;28;20423;-47
2023/05/18 06:58:46;;;;;;;5.60;3.40;;;9.40;71.70;;;12.18;48.32;98266.16;4971134;28;20054;-45
2023/05/18 07:01:16;;;;;;;9.93;4.40;;;9.50;71.70;;;12.26;47.98;98268.06;4963340;28;20046;-46
2023/05/18 07:03:44;;;;;;;11.33;3.70;;;9.50;71.20;;;12.31;47.90;98263.91;4954331;28;20047;-47
2023/05/18 07:06:12;;;;;;;10.10;4.50;;;9.60;71.30;;;12.35;48.00;98272.47;4954684;28;20405;-48
2023/05/18 07:08:39;;;;;;;9.37;3.60;;;9.60;70.70;;;12.40;47.82;98265.63;4972485;28;20201;-48
2023/05/18 07:11:08;;;;;;;4.87;2.97;;;9.70;70.70;;;12.46;47.47;98269.50;4972650;28;20042;-46
2023/05/18 07:13:36;;;;;;;10.83;4.00;;;9.80;70.20;;;12.56;47.51;98274.72;4972731;28;20066;-48
2023/05/18 07:16:05;;;;;;;7.90;3.33;;;9.80;70.10;;;12.60;46.89;98276.94;4955590;28;20057;-46
2023/05/18 07:18:32;;;;;;;5.87;3.37;;;9.90;69.60;;;12.61;47.02;98273.25;4972676;28;20414;-49
2023/05/18 07:21:00;;;;;;;5.47;2.97;;;9.90;69.10;;;12.68;47.26;98285.97;4955033;28;20057;-46
2023/05/18 07:23:28;;;;;;;7.07;3.33;;;9.90;68.80;;;12.68;46.88;98278.81;4972452;28;20054;-45
2023/05/18 07:25:56;;;;;;;8.13;4.27;;;10.00;68.60;;;12.72;46.61;98274.00;4972480;28;20053;-47
2023/05/18 07:28:24;;;;;;;5.83;4.00;;;10.00;68.10;;;12.74;46.91;98275.50;4972357;28;20038;-45
2023/05/18 07:30:51;;;;;;;7.00;3.60;;;10.10;67.60;;;12.81;46.64;98270.34;4971754;28;20043;-47
2023/05/18 07:33:19;;;;;;;9.83;3.73;;;10.20;67.80;;;12.91;46.93;98268.41;4972292;28;20040;-44
2023/05/18 07:35:46;;;;;;;7.00;3.30;;;10.20;68.10;;;13.02;46.53;98266.44;4971906;28;20438;-46
2023/05/18 07:38:14;;;;;;;7.30;4.00;;;10.40;68.00;;;13.11;46.64;98274.31;4969810;28;20053;-48
2023/05/18 07:40:42;;;;;;;12.57;4.07;;;10.40;67.80;;;13.11;46.19;98274.31;4972454;28;20058;-49
2023/05/18 07:43:10;;;;;;;7.40;3.63;;;10.40;66.60;;;13.14;46.19;98265.13;4972383;28;20054;-49
2023/05/18 07:45:38;;;;;;;8.10;4.13;;;10.50;66.60;;;13.20;45.94;98268.00;4972454;28;20054;-45
2023/05/18 07:48:06;;;;;;;6.07;4.00;;;10.60;66.40;;;13.27;45.79;98262.84;4971944;28;20039;-50
2023/05/18 07:50:34;;;;;;;10.87;4.00;;;10.60;65.50;;;13.33;45.70;98264.06;4972133;28;20051;-49
2023/05/18 07:53:02;;;;;;;8.00;3.50;;;10.70;66.20;;;13.37;45.95;98260.03;4972127;28;20410;-46
2023/05/18 07:55:29;;;;;;;6.53;3.40;;;10.70;66.40;;;13.46;45.84;98258.25;4972025;28;20039;-47
2023/05/18 07:57:59;;;;;;;9.63;3.60;;;10.80;66.30;;;13.43;45.43;98261.22;4971958;28;20051;-48
2023/05/18 08:00:27;;;;;;;7.27;3.80;;;10.80;64.20;;;13.45;45.57;98261.91;4954562;28;20046;-48
2023/05/18 08:02:55;;;;;;;9.63;3.53;;;10.80;65.60;;;13.50;45.64;98256.91;4954980;28;20054;-49
2023/05/18 08:05:23;;;;;;;9.33;4.33;;;10.80;65.30;;;13.55;45.31;98258.09;4972074;28;20066;-49
2023/05/18 08:07:51;;;;;;;8.00;3.80;;;11.00;64.90;;;13.60;45.46;98254.91;4971101;28;20112;-49
2023/05/18 08:10:19;;;;;;;7.27;3.87;;;11.00;64.30;;;13.66;45.35;98253.41;4971803;28;20430;-46
2023/05/18 08:12:46;;;;;;;9.87;3.60;;;11.20;64.60;;;13.78;45.18;98255.59;4971948;28;20078;-45
2023/05/18 08:15:14;;;;;;;7.90;3.90;;;11.20;62.50;;;13.86;44.75;98256.59;4972009;28;20039;-45
2023/05/18 08:17:41;;;;;;;7.87;4.83;;;11.30;63.50;;;13.92;44.44;98253.22;4971544;28;20414;-45
2023/05/18 08:20:10;;;;;;;13.03;3.77;;;11.40;62.80;;;13.96;44.32;98244.72;4954039;28;20494;-46
2023/05/18 08:22:37;;;;;;;9.00;4.00;;;11.50;62.50;;;14.01;44.24;98252.22;4971728;28;20060;-48
2023/05/18 08:25:05;;;;;;;10.20;3.77;;;11.50;61.60;;;14.09;44.13;98248.72;4971917;28;20419;-45
2023/05/18 08:27:33;;;;;;;6.25;3.40;;;11.60;61.80;;;14.20;44.17;98251.06;4971616;28;20069;-44
2023/05/18 08:30:01;;;;;;;7.00;3.30;;;11.60;62.30;;;14.31;44.02;98249.88;4971611;28;20054;-46
2023/05/18 08:32:29;;;;;;;6.87;3.57;;;11.80;62.20;;;14.40;44.11;98243.47;4971491;28;20054;-45
2023/05/18 08:34:57;;;;;;;7.53;3.85;;;11.80;61.80;;;14.49;43.82;98249.66;4971606;28;20039;-45
2023/05/18 08:37:28;;;;;;;8.15;3.00;;;11.90;61.90;;;14.59;43.80;98247.66;4970919;28;20038;-50
2023/05/18 08:39:58;;;;;;;6.87;3.30;;;12.00;61.80;;;14.68;43.50;98241.25;4963684;28;20530;-47
2023/05/18 08:42:32;;;;;;;8.23;3.43;;;12.10;61.30;;;14.77;43.54;98237.56;4971872;28;20051;-46
2023/05/18 08:45:39;;;;;;;8.17;3.63;;;12.20;60.60;;;14.87;43.14;98231.97;4971761;28;20386;-46
2023/05/18 08:48:09;;;;;;;7.57;3.55;;;12.30;59.10;;;14.94;42.35;98226.75;4971499;28;20509;-46
2023/05/18 08:50:40;;;;;;;5.65;3.10;;;12.40;57.00;;;14.92;42.22;98223.41;4970173;28;20054;-46
2023/05/18 08:53:10;;;;;;;9.65;3.70;;;12.40;57.60;;;14.95;42.67;98226.56;4971586;28;20042;-45
2023/05/18 08:55:40;;;;;;;5.90;3.15;;;12.50;58.50;;;15.06;42.28;98224.50;4971404;28;20043;-44
2023/05/18 08:58:11;;;;;;;10.90;4.35;;;12.50;58.90;;;15.16;41.83;98219.78;4970435;28;20047;-45
2023/05/18 09:00:39;;;;;;;7.50;3.80;;;12.60;58.60;;;15.25;41.91;98217.88;4970099;28;20058;-46
2023/05/18 09:03:07;;;;;;;9.52;3.67;;;12.70;58.30;;;15.33;42.02;98217.81;4970437;28;20063;-46
2023/05/18 09:05:36;;;;;;;11.38;3.80;;;12.80;58.40;;;15.41;41.67;98217.78;4970311;28;20051;-48
2023/05/18 09:08:06;;;;;;;6.70;3.13;;;12.90;57.90;;;15.46;41.60;98212.69;4970155;28;20043;-45
2023/05/18 09:10:35;;;;;;;8.98;3.15;;;12.90;57.40;;;15.54;41.37;98218.00;4972846;28;20057;-45
2023/05/18 09:13:04;;;;;;;6.70;4.40;;;13.00;57.10;;;15.58;40.75;98212.28;4957809;28;20047;-45
2023/05/18 09:15:34;;;;;;;8.63;3.25;;;13.10;56.20;;;15.64;40.90;98207.03;4973809;28;20057;-49
2023/05/18 09:18:02;;;;;;;10.57;3.80;;;13.10;56.40;;;15.69;40.69;98212.69;4975033;28;20047;-47
2023/05/18 09:20:30;;;;;;;6.63;3.58;;;13.20;56.20;;;15.75;40.83;98211.16;4974512;28;20276;-45
2023/05/18 09:22:59;;;;;;;6.47;3.00;;;13.20;56.40;;;15.85;40.10;98218.97;4967191;28;20098;-47
2023/05/18 09:25:30;;;;;;;7.38;3.10;;;13.30;55.40;;;15.86;40.70;98223.34;4975015;28;20147;-46
2023/05/18 09:27:58;;;;;;;7.90;3.20;;;13.40;56.00;;;15.94;40.58;98218.72;4965837;28;20099;-45
2023/05/18 09:30:26;;;;;;;7.28;3.47;;;13.40;55.90;;;16.00;39.99;98211.78;4974344;28;20045;-48
2023/05/18 09:32:54;;;;;;;7.65;3.85;;;13.50;54.90;;;16.07;39.95;98211.88;4971715;28;20087;-45
2023/05/18 09:35:24;;;;;;;6.72;3.08;;;13.60;55.00;;;16.14;39.91;98213.66;4972432;28;20046;-47
2023/05/18 09:37:52;;;;;;;11.57;3.28;;;13.60;54.30;;;16.23;39.76;98211.75;4965316;28;20838;-45
2023/05/18 09:40:28;;;;;;;7.88;3.20;;;13.80;54.10;;;16.32;39.92;98215.16;4973065;28;20565;-45
2023/05/18 09:42:56;;;;;;;6.03;3.72;;;13.80;53.70;;;16.44;39.67;98210.16;4974479;28;20498;-46
2023/05/18 09:45:25;;;;;;;5.65;3.15;;;13.90;54.40;;;16.54;39.66;98206.19;4974465;28;20042;-47
2023/05/18 09:47:53;;;;;;;8.05;4.00;;;14.00;54.40;;;16.71;39.16;98206.84;4974142;28;20047;-48
2023/05/18 09:50:22;;;;;;;5.82;3.05;;;14.20;53.30;;;16.84;38.94;98210.75;4973895;28;20034;-50
2023/05/18 09:52:50;;;;;;;7.82;3.88;;;14.30;53.10;;;16.92;38.17;98208.81;4974396;28;20246;-50
2023/05/18 09:55:19;;;;;;;7.57;3.40;;;14.50;52.20;;;17.03;38.24;98206.66;4974309;28;20071;-44
2023/05/18 09:57:49;;;;;;;7.18;2.95;;;14.50;51.80;;;17.12;38.22;98203.66;4973923;28;20051;-45
2023/05/18 10:00:19;;;;;;;5.38;3.95;;;14.70;52.00;;;17.22;38.27;98195.28;4972726;28;20057;-45
2023/05/18 10:02:51;;;;;;;6.80;4.85;;;14.80;51.70;;;17.31;37.98;98204.03;4974098;28;20077;-45
2023/05/18 10:05:32;;;;;;;6.03;3.05;;;14.80;51.50;;;17.42;37.22;98194.66;4973847;28;20058;-46
2023/05/18 10:08:02;;;;;;;6.85;4.90;;;14.90;49.40;;;17.48;37.55;98189.31;4966738;28;20039;-45
2023/05/18 10:10:30;;;;;;;7.95;4.85;;;15.00;50.80;;;17.58;37.48;98196.25;4973628;28;20292;-48
2023/05/18 10:13:00;;;;;;;5.13;3.28;;;15.10;50.70;;;17.66;36.59;98188.88;4973841;28;20043;-44
2023/05/18 10:15:27;;;;;;;6.32;3.75;;;15.20;49.30;;;17.72;36.54;98187.28;4956869;28;20057;-48
2023/05/18 10:17:58;;;;;;;8.20;3.95;;;15.20;48.80;;;17.73;36.69;98180.03;4973687;28;20039;-47
2023/05/18 10:20:26;;;;;;;5.60;3.28;;;15.20;49.00;;;17.79;36.41;98185.47;4973293;28;20075;-48
2023/05/18 10:22:57;;;;;;;5.22;3.05;;;15.30;48.50;;;17.82;35.48;98178.88;4972801;28;20047;-48
2023/05/18 10:25:28;;;;;;;9.80;3.30;;;15.30;45.40;;;17.79;36.01;98171.16;4972586;28;20051;-48
2023/05/18 10:27:59;;;;;;;5.97;3.45;;;15.30;46.20;;;17.79;35.30;98176.56;4973232;28;20415;-45
2023/05/18 10:30:27;;;;;;;8.13;3.50;;;15.30;47.20;;;17.85;35.71;98178.50;4972240;28;20547;-46
2023/05/18 10:32:56;;;;;;;5.53;3.05;;;15.40;47.60;;;17.94;35.89;98176.50;4973546;28;20077;-46
2023/05/18 10:35:27;;;;;;;7.13;3.50;;;15.60;47.80;;;18.03;35.57;98176.16;4972378;28;20399;-45